Time;durP1;ratioP1;P1;durP2;ratioP2;P2;SDS_P1;SDS_P2;PMS_P1;PMS_P2;Temp;Humidity;BMP_temperature;BMP_pressure;BME280_temperature;BME280_humidity;BME280_pressure;Samples;Min_cycle;Max_cycle;Signal;HPM_P1;HPM_P2
2022/06/28 00:00:45;;;;;;;4.90;4.50;;;;;;;;;;5043150;28;20436;-70
2022/06/28 00:03:13;;;;;;;4.90;4.50;;;;;;;;;;5032504;28;20425;-70
2022/06/28 00:05:40;;;;;;;5.00;4.60;;;;;;;;;;5042792;28;20433;-70
2022/06/28 00:08:07;;;;;;;5.70;5.20;;;;;;;;;;5039602;28;20440;-70
2022/06/28 00:10:34;;;;;;;5.28;4.88;;;;;;;;;;5045368;28;21105;-71
2022/06/28 00:13:02;;;;;;;5.55;5.15;;;;;;;;;;5043086;28;20991;-70
2022/06/28 00:18:15;;;;;;;6.20;5.60;;;;;;;;;;5040688;28;20439;-70
2022/06/28 00:20:42;;;;;;;6.07;5.50;;;;;;;;;;5045182;28;21190;-70
2022/06/28 00:23:09;;;;;;;5.80;5.40;;;;;;;;;;5043592;28;20432;-70
2022/06/28 00:25:36;;;;;;;7.43;5.60;;;;;;;;;;5040565;28;20425;-70
2022/06/28 00:28:04;;;;;;;6.80;6.13;;;;;;;;;;5040778;28;20429;-70
2022/06/28 00:30:31;;;;;;;6.00;5.50;;;;;;;;;;5041387;28;20456;-70
2022/06/28 00:32:58;;;;;;;6.30;5.80;;;;;;;;;;5041054;28;20931;-70
2022/06/28 00:35:27;;;;;;;5.90;5.50;;;;;;;;;;5044224;28;20905;-70
2022/06/28 00:37:54;;;;;;;5.88;5.43;;;;;;;;;;5041648;28;20425;-71
2022/06/28 00:40:21;;;;;;;6.38;5.88;;;;;;;;;;5043485;28;21102;-71
2022/06/28 00:42:48;;;;;;;6.68;5.80;;;;;;;;;;5043582;28;20439;-70
2022/06/28 00:45:16;;;;;;;6.45;6.00;;;;;;;;;;5044247;28;20433;-70
2022/06/28 00:47:43;;;;;;;7.20;6.50;;;;;;;;;;5041022;28;20436;-70
2022/06/28 00:50:11;;;;;;;6.47;5.97;;;;;;;;;;5044501;28;20428;-70
2022/06/28 00:55:32;;;;;;;7.97;7.15;;;;;;;;;;5098576;27;20708;-68
2022/06/28 00:58:00;;;;;;;7.25;6.65;;;;;;;;;;5097212;28;20552;-68
2022/06/28 01:00:28;;;;;;;7.50;6.80;;;;;;;;;;5097443;28;20424;-68
2022/06/28 01:02:55;;;;;;;7.70;7.10;;;;;;;;;;5096119;28;20452;-69
2022/06/28 01:11:32;;;;;;;7.80;7.10;;;;;;;;;;5068850;28;20416;-68
2022/06/28 01:14:00;;;;;;;7.38;6.68;;;;;;;;;;5065131;28;20463;-68
2022/06/28 01:16:28;;;;;;;7.03;6.53;;;;;;;;;;5059465;28;21426;-68
2022/06/28 01:18:55;;;;;;;7.97;6.80;;;;;;;;;;5059918;28;20449;-68
2022/06/28 01:21:22;;;;;;;6.27;5.77;;;;;;;;;;5059844;28;20430;-70
2022/06/28 01:23:51;;;;;;;6.80;6.30;;;;;;;;;;5063619;28;20548;-68
2022/06/28 01:26:19;;;;;;;6.53;5.93;;;;;;;;;;5083862;28;20972;-69
2022/06/28 01:28:47;;;;;;;9.18;6.10;;;;;;;;;;5084358;28;20423;-69
2022/06/28 01:31:14;;;;;;;6.10;5.60;;;;;;;;;;5089010;28;20432;-69
2022/06/28 01:33:42;;;;;;;7.10;6.40;;;;;;;;;;5091039;28;20457;-71
2022/06/28 01:36:09;;;;;;;6.60;6.03;;;;;;;;;;5102794;28;20494;-68
2022/06/28 01:38:38;;;;;;;6.57;5.95;;;;;;;;;;5104061;28;20923;-68
2022/06/28 01:41:06;;;;;;;7.20;6.60;;;;;;;;;;5097104;28;20427;-68
2022/06/28 01:43:33;;;;;;;6.32;5.90;;;;;;;;;;5095253;28;20418;-69
2022/06/28 01:46:01;;;;;;;6.80;6.30;;;;;;;;;;5094027;28;20742;-69
2022/06/28 01:48:28;;;;;;;7.20;6.50;;;;;;;;;;5088876;28;20433;-71
2022/06/28 01:50:56;;;;;;;7.80;7.00;;;;;;;;;;5079130;28;20959;-69
2022/06/28 01:53:23;;;;;;;8.25;7.65;;;;;;;;;;5085347;28;20425;-69
2022/06/28 01:55:50;;;;;;;7.68;7.10;;;;;;;;;;5098964;28;20433;-69
2022/06/28 01:58:18;;;;;;;8.70;8.00;;;;;;;;;;5100749;28;20451;-68
2022/06/28 02:00:45;;;;;;;8.00;7.40;;;;;;;;;;5105228;28;20437;-68
2022/06/28 02:03:13;;;;;;;8.07;7.47;;;;;;;;;;5103195;28;20802;-69
2022/06/28 02:05:40;;;;;;;8.00;7.40;;;;;;;;;;5093581;28;20432;-69
2022/06/28 02:08:09;;;;;;;8.05;7.35;;;;;;;;;;5096280;28;20425;-68
2022/06/28 02:10:36;;;;;;;8.70;8.00;;;;;;;;;;5105799;28;20497;-69
2022/06/28 02:13:03;;;;;;;8.20;7.50;;;;;;;;;;5103036;28;20426;-69
2022/06/28 02:15:32;;;;;;;8.75;8.13;;;;;;;;;;5101087;28;20422;-69
2022/06/28 02:18:00;;;;;;;9.30;8.50;;;;;;;;;;5109011;28;20426;-68
2022/06/28 02:20:28;;;;;;;9.65;8.85;;;;;;;;;;5108470;28;20517;-68
2022/06/28 02:22:55;;;;;;;9.00;8.30;;;;;;;;;;5106476;28;20405;-68
2022/06/28 02:25:22;;;;;;;9.73;9.00;;;;;;;;;;5087713;28;20436;-69
2022/06/28 02:27:49;;;;;;;9.63;8.82;;;;;;;;;;5088233;28;20436;-69
2022/06/28 02:30:16;;;;;;;9.32;8.63;;;;;;;;;;5086993;28;20930;-70
2022/06/28 02:32:45;;;;;;;9.25;8.45;;;;;;;;;;5087988;28;20430;-68
2022/06/28 02:40:41;;;;;;;9.57;8.85;;;;;;;;;;5085038;28;20523;-68
2022/06/28 02:43:08;;;;;;;9.40;8.60;;;;;;;;;;5086342;28;20815;-69
2022/06/28 02:45:36;;;;;;;8.32;7.70;;;;;;;;;;5084882;28;20426;-69
2022/06/28 02:48:05;;;;;;;8.00;7.40;;;;;;;;;;5083242;28;22064;-69
2022/06/28 02:50:32;;;;;;;9.30;8.40;;;;;;;;;;5084890;28;20440;-69
2022/06/28 02:52:59;;;;;;;8.50;7.80;;;;;;;;;;5087328;28;20445;-68
2022/06/28 02:55:27;;;;;;;8.20;7.50;;;;;;;;;;5085317;28;20421;-69
2022/06/28 02:57:54;;;;;;;8.32;7.53;;;;;;;;;;5081259;28;20429;-69
2022/06/28 03:00:21;;;;;;;7.28;6.78;;;;;;;;;;5086089;28;20445;-69
2022/06/28 03:02:49;;;;;;;7.88;7.28;;;;;;;;;;5086968;28;20444;-69
2022/06/28 03:05:19;;;;;;;7.10;6.50;;;;;;;;;;5085895;28;20793;-69
2022/06/28 03:07:46;;;;;;;7.40;6.80;;;;;;;;;;5083037;28;20516;-69
2022/06/28 03:10:14;;;;;;;7.00;6.40;;;;;;;;;;5083254;28;20434;-69
2022/06/28 03:12:41;;;;;;;7.57;6.90;;;;;;;;;;5086444;28;20440;-68
2022/06/28 03:15:09;;;;;;;7.35;6.75;;;;;;;;;;5085612;28;20426;-69
2022/06/28 03:17:36;;;;;;;7.90;7.10;;;;;;;;;;5081862;28;21281;-68
2022/06/28 03:20:03;;;;;;;7.10;6.60;;;;;;;;;;5086511;28;20440;-70
2022/06/28 03:22:31;;;;;;;7.87;7.17;;;;;;;;;;5086221;28;20444;-71
2022/06/28 03:24:59;;;;;;;7.57;6.90;;;;;;;;;;5076629;28;20993;-70
2022/06/28 03:27:26;;;;;;;7.43;6.82;;;;;;;;;;5070096;28;20861;-69
2022/06/28 03:29:53;;;;;;;7.30;6.70;;;;;;;;;;5085629;28;20418;-69
2022/06/28 03:32:20;;;;;;;7.07;6.47;;;;;;;;;;5080954;28;20965;-68
2022/06/28 03:34:47;;;;;;;8.05;7.35;;;;;;;;;;5079213;28;20941;-69
2022/06/28 03:37:15;;;;;;;7.80;7.10;;;;;;;;;;5086230;28;20441;-68
2022/06/28 03:39:43;;;;;;;7.32;6.72;;;;;;;;;;5085383;28;20429;-68
2022/06/28 03:42:10;;;;;;;7.33;6.70;;;;;;;;;;5076957;28;20432;-68
2022/06/28 03:44:38;;;;;;;7.85;7.00;;;;;;;;;;5077609;28;20410;-68
2022/06/28 03:47:05;;;;;;;7.40;6.70;;;;;;;;;;5085981;28;20511;-68
2022/06/28 03:49:32;;;;;;;7.60;6.90;;;;;;;;;;5086462;28;20521;-68
2022/06/28 03:51:59;;;;;;;7.70;7.00;;;;;;;;;;5085717;28;20430;-68
2022/06/28 03:54:26;;;;;;;9.98;8.77;;;;;;;;;;5086005;28;20422;-69
2022/06/28 03:56:55;;;;;;;9.68;8.77;;;;;;;;;;5086883;28;20436;-69
2022/06/28 03:59:22;;;;;;;11.77;10.57;;;;;;;;;;5105254;28;20486;-68
2022/06/28 04:01:49;;;;;;;14.23;12.73;;;;;;;;;;5102845;28;20507;-69
2022/06/28 04:04:16;;;;;;;20.27;13.90;;;;;;;;;;5108078;28;20420;-68
2022/06/28 04:06:43;;;;;;;22.10;14.70;;;;;;;;;;5102619;28;20444;-68
2022/06/28 04:09:11;;;;;;;25.65;14.32;;;;;;;;;;5103482;28;20505;-68
2022/06/28 04:11:38;;;;;;;33.05;14.50;;;;;;;;;;5104225;28;20421;-68
2022/06/28 04:14:06;;;;;;;23.95;14.25;;;;;;;;;;5088826;28;20430;-68
2022/06/28 04:16:33;;;;;;;32.50;14.20;;;;;;;;;;5090898;28;20542;-69
2022/06/28 04:19:01;;;;;;;15.20;13.25;;;;;;;;;;5085430;28;20475;-69
2022/06/28 04:21:28;;;;;;;15.45;13.85;;;;;;;;;;5088813;28;20424;-69
2022/06/28 04:23:55;;;;;;;14.35;13.05;;;;;;;;;;5089592;22;20457;-68
2022/06/28 04:26:22;;;;;;;14.47;13.07;;;;;;;;;;5020428;28;20426;-69
2022/06/28 04:28:49;;;;;;;13.20;11.90;;;;;;;;;;5019943;28;20431;-67
2022/06/28 04:31:18;;;;;;;12.23;11.23;;;;;;;;;;5021873;28;20444;-69
2022/06/28 04:33:45;;;;;;;12.70;11.70;;;;;;;;;;5021615;28;20506;-67
2022/06/28 04:36:12;;;;;;;13.07;11.98;;;;;;;;;;5021047;28;20431;-69
2022/06/28 04:38:40;;;;;;;14.23;12.93;;;;;;;;;;5021873;28;20435;-66
2022/06/28 04:41:07;;;;;;;15.32;13.48;;;;;;;;;;5020615;28;20461;-69
2022/06/28 04:43:34;;;;;;;13.82;12.63;;;;;;;;;;5019229;28;20435;-69
2022/06/28 04:46:01;;;;;;;14.27;12.98;;;;;;;;;;5021256;28;20510;-68
2022/06/28 04:48:29;;;;;;;15.30;13.90;;;;;;;;;;5020257;28;20461;-69
2022/06/28 04:51:10;;;;;;;14.70;13.30;;;;;;;;;;5016235;28;20438;-68
2022/06/28 04:53:37;;;;;;;14.88;13.48;;;;;;;;;;5020212;28;20514;-75
2022/06/28 04:56:05;;;;;;;14.27;12.77;;;;;;;;;;5021658;28;20431;-75
2022/06/28 04:58:32;;;;;;;14.43;13.20;;;;;;;;;;5018874;28;20460;-75
2022/06/28 05:00:59;;;;;;;14.10;12.90;;;;;;;;;;5015523;28;20465;-74
2022/06/28 05:03:26;;;;;;;14.32;13.02;;;;;;;;;;5017221;28;20450;-74
2022/06/28 05:05:55;;;;;;;14.47;13.17;;;;;;;;;;5021248;28;20505;-75
2022/06/28 05:08:22;;;;;;;14.83;13.57;;;;;;;;;;5016309;28;20411;-75
2022/06/28 05:10:49;;;;;;;14.38;12.98;;;;;;;;;;5019970;28;20430;-74
2022/06/28 05:13:16;;;;;;;13.48;12.38;;;;;;;;;;5018473;28;21047;-69
2022/06/28 05:15:43;;;;;;;12.68;11.68;;;;;;;;;;5018892;28;20438;-69
2022/06/28 05:18:10;;;;;;;13.95;12.70;;;;;;;;;;5020975;28;20454;-72
2022/06/28 05:20:37;;;;;;;13.90;12.60;;;;;;;;;;5013490;28;20435;-73
2022/06/28 05:23:06;;;;;;;14.75;13.35;;;;;;;;;;5016171;28;20442;-71
2022/06/28 05:25:33;;;;;;;17.00;15.40;;;;;;;;;;5022042;28;20438;-71
2022/06/28 05:28:00;;;;;;;15.90;14.45;;;;;;;;;;5020458;28;20434;-74
2022/06/28 05:30:27;;;;;;;16.75;15.15;;;;;;;;;;5022201;28;20442;-74
2022/06/28 05:32:54;;;;;;;16.13;14.73;;;;;;;;;;5021723;28;20427;-73
2022/06/28 05:35:21;;;;;;;16.08;14.68;;;;;;;;;;5020210;28;20442;-73
2022/06/28 05:37:49;;;;;;;15.50;14.10;;;;;;;;;;5019401;28;20431;-73
2022/06/28 05:40:17;;;;;;;15.52;14.13;;;;;;;;;;5020253;28;20527;-72
2022/06/28 05:42:44;;;;;;;16.85;15.35;;;;;;;;;;5026586;28;20513;-74
2022/06/28 05:45:12;;;;;;;16.50;15.00;;;;;;;;;;5021538;28;20494;-67
2022/06/28 05:47:39;;;;;;;17.73;16.08;;;;;;;;;;5020266;28;20491;-70
2022/06/28 05:50:06;;;;;;;17.27;15.68;;;;;;;;;;5020353;28;20766;-71
2022/06/28 05:52:33;;;;;;;15.73;14.43;;;;;;;;;;5016599;28;20432;-70
2022/06/28 05:55:01;;;;;;;16.17;14.77;;;;;;;;;;5023499;28;20430;-70
2022/06/28 05:57:29;;;;;;;15.82;14.52;;;;;;;;;;5022968;28;20920;-68
2022/06/28 05:59:56;;;;;;;14.88;13.48;;;;;;;;;;5023029;28;20524;-70
2022/06/28 06:02:23;;;;;;;15.02;13.63;;;;;;;;;;5019104;28;20442;-70
2022/06/28 06:04:50;;;;;;;14.23;13.10;;;;;;;;;;5014438;28;20514;-70
2022/06/28 06:07:18;;;;;;;14.05;12.85;;;;;;;;;;5019821;28;20431;-69
2022/06/28 06:09:45;;;;;;;12.30;11.20;;;;;;;;;;5022494;28;20430;-71
2022/06/28 06:12:12;;;;;;;11.90;10.90;;;;;;;;;;5021419;28;20454;-72
2022/06/28 06:14:41;;;;;;;11.13;9.93;;;;;;;;;;5022550;28;20439;-72
2022/06/28 06:17:08;;;;;;;10.10;9.30;;;;;;;;;;5020717;28;20512;-73
2022/06/28 06:19:35;;;;;;;9.83;8.97;;;;;;;;;;5023302;28;21146;-71
2022/06/28 06:22:02;;;;;;;8.88;8.10;;;;;;;;;;5022783;28;20427;-73
2022/06/28 06:24:29;;;;;;;8.90;8.10;;;;;;;;;;5020619;28;20505;-72
2022/06/28 06:26:56;;;;;;;8.60;7.85;;;;;;;;;;5022906;28;20806;-71
2022/06/28 06:29:24;;;;;;;7.90;7.20;;;;;;;;;;5024681;28;20500;-71
2022/06/28 06:31:52;;;;;;;8.70;8.00;;;;;;;;;;5024109;28;20431;-71
2022/06/28 06:34:19;;;;;;;8.70;7.90;;;;;;;;;;5020870;28;20460;-71
2022/06/28 06:36:47;;;;;;;8.52;7.80;;;;;;;;;;5019522;28;20442;-69
2022/06/28 06:39:14;;;;;;;8.23;6.50;;;;;;;;;;5021671;28;20952;-70
2022/06/28 06:41:41;;;;;;;7.30;6.60;;;;;;;;;;5023418;28;20797;-72
2022/06/28 06:44:08;;;;;;;6.25;5.65;;;;;;;;;;5024146;28;20676;-72
2022/06/28 06:46:36;;;;;;;6.07;5.50;;;;;;;;;;5025567;28;20435;-70
2022/06/28 06:49:05;;;;;;;7.50;6.22;;;;;;;;;;5023846;28;20918;-71
2022/06/28 06:51:32;;;;;;;7.43;6.72;;;;;;;;;;5020633;28;20449;-72
2022/06/28 06:53:59;;;;;;;7.40;6.70;;;;;;;;;;5018429;28;20446;-70
2022/06/28 06:56:27;;;;;;;8.35;6.90;;;;;;;;;;5023560;28;20954;-70
2022/06/28 06:58:54;;;;;;;7.20;6.60;;;;;;;;;;5025520;28;20427;-73
2022/06/28 07:01:22;;;;;;;7.90;7.20;;;;;;;;;;5020050;28;20572;-71
2022/06/28 07:03:49;;;;;;;7.28;6.60;;;;;;;;;;5019375;28;20645;-71
2022/06/28 07:06:17;;;;;;;6.50;5.53;;;;;;;;;;5015663;28;21019;-72
2022/06/28 07:08:44;;;;;;;5.82;5.22;;;;;;;;;;5021881;28;20441;-71
2022/06/28 07:11:11;;;;;;;6.18;5.40;;;;;;;;;;5017225;28;20431;-71
2022/06/28 07:13:39;;;;;;;6.35;5.78;;;;;;;;;;5021006;28;20430;-72
2022/06/28 07:16:06;;;;;;;6.13;4.38;;;;;;;;;;5010562;28;20443;-72
2022/06/28 07:18:33;;;;;;;4.60;3.67;;;;;;;;;;5016094;28;20556;-71
2022/06/28 07:21:00;;;;;;;4.30;3.05;;;;;;;;;;5016318;28;20440;-72
2022/06/28 07:23:29;;;;;;;4.03;2.87;;;;;;;;;;5022923;28;20893;-72
2022/06/28 07:25:57;;;;;;;4.30;2.30;;;;;;;;;;5017800;28;20778;-71
2022/06/28 07:28:24;;;;;;;3.30;3.00;;;;;;;;;;5022834;28;20426;-72
2022/06/28 07:30:51;;;;;;;3.80;2.58;;;;;;;;;;5019958;28;20548;-73
2022/06/28 07:33:18;;;;;;;3.03;2.20;;;;;;;;;;5022180;28;20669;-72
2022/06/28 07:35:45;;;;;;;2.57;2.00;;;;;;;;;;5016009;28;20455;-73
2022/06/28 07:38:13;;;;;;;3.00;2.10;;;;;;;;;;5023140;28;20438;-72
2022/06/28 07:40:41;;;;;;;3.75;2.67;;;;;;;;;;5021884;28;20431;-73
2022/06/28 07:43:09;;;;;;;4.18;2.15;;;;;;;;;;5018802;28;20445;-71
2022/06/28 07:45:39;;;;;;;2.78;1.70;;;;;;;;;;5019763;28;20447;-70
2022/06/28 07:48:06;;;;;;;3.73;2.40;;;;;;;;;;5023987;28;20415;-71
2022/06/28 07:53:19;;;;;;;4.30;3.60;;;;;;;;;;5027673;28;20481;-71
2022/06/28 07:55:47;;;;;;;5.20;4.00;;;;;;;;;;5020386;28;20439;-72
2022/06/28 07:58:16;;;;;;;4.03;2.97;;;;;;;;;;5023172;28;20431;-71
2022/06/28 08:00:43;;;;;;;4.05;2.60;;;;;;;;;;5017386;28;20470;-72
2022/06/28 08:03:11;;;;;;;3.53;2.60;;;;;;;;;;5024359;28;20536;-72
2022/06/28 08:05:39;;;;;;;3.75;2.70;;;;;;;;;;5020794;28;20492;-72
2022/06/28 08:08:06;;;;;;;3.35;2.38;;;;;;;;;;5023610;28;20438;-73
2022/06/28 08:10:33;;;;;;;3.80;2.83;;;;;;;;;;5025790;28;20435;-72
2022/06/28 08:13:02;;;;;;;2.63;2.20;;;;;;;;;;5025846;28;20430;-72
2022/06/28 08:15:29;;;;;;;3.53;2.50;;;;;;;;;;5018664;28;20478;-72
2022/06/28 08:17:56;;;;;;;4.10;2.70;;;;;;;;;;5019842;28;20435;-73
2022/06/28 08:20:23;;;;;;;2.63;2.40;;;;;;;;;;5019466;28;20438;-71
2022/06/28 08:22:50;;;;;;;2.92;2.53;;;;;;;;;;5013165;28;20488;-71
2022/06/28 08:25:17;;;;;;;3.67;2.50;;;;;;;;;;5019565;28;20434;-73
2022/06/28 08:27:45;;;;;;;3.03;2.45;;;;;;;;;;5021488;28;20515;-71
2022/06/28 08:30:13;;;;;;;2.97;2.30;;;;;;;;;;5017956;28;20443;-71
2022/06/28 08:32:41;;;;;;;4.10;3.40;;;;;;;;;;5019258;28;20426;-71
2022/06/28 08:35:08;;;;;;;3.73;3.33;;;;;;;;;;5021785;28;20773;-71
2022/06/28 08:37:35;;;;;;;2.70;2.28;;;;;;;;;;5024035;28;20433;-72
2022/06/28 08:40:02;;;;;;;2.92;2.60;;;;;;;;;;5018698;28;20435;-72
2022/06/28 08:42:32;;;;;;;3.50;3.20;;;;;;;;;;5017106;28;20451;-72
2022/06/28 08:45:00;;;;;;;3.97;3.00;;;;;;;;;;5020578;28;20446;-73
2022/06/28 08:47:30;;;;;;;3.40;3.10;;;;;;;;;;5019974;28;20517;-68
2022/06/28 08:49:58;;;;;;;3.65;3.25;;;;;;;;;;5018424;28;20425;-68
2022/06/28 08:52:26;;;;;;;3.28;2.97;;;;;;;;;;5018968;28;20885;-70
2022/06/28 08:54:53;;;;;;;3.47;3.28;;;;;;;;;;5022471;28;20442;-68
2022/06/28 08:57:21;;;;;;;3.88;3.47;;;;;;;;;;5021263;28;20479;-70
2022/06/28 08:59:49;;;;;;;3.67;3.20;;;;;;;;;;5017161;28;20435;-70
2022/06/28 09:02:16;;;;;;;3.33;2.80;;;;;;;;;;5021432;28;20817;-71
2022/06/28 09:04:46;;;;;;;2.60;2.40;;;;;;;;;;5021165;28;20581;-69
2022/06/28 09:07:14;;;;;;;2.60;2.30;;;;;;;;;;5017418;28;20921;-69
2022/06/28 09:09:41;;;;;;;3.30;3.00;;;;;;;;;;5016164;28;20434;-70
2022/06/28 09:12:09;;;;;;;4.97;3.33;;;;;;;;;;5017121;28;20798;-69
2022/06/28 09:14:36;;;;;;;5.20;4.60;;;;;;;;;;5017197;28;20903;-69
2022/06/28 09:17:18;;;;;;;3.38;3.00;;;;;;;;;;5024801;28;20549;-70
2022/06/28 09:19:47;;;;;;;3.55;3.25;;;;;;;;;;5018752;28;20529;-70
2022/06/28 09:22:29;;;;;;;5.70;5.20;;;;;;;;;;5021280;28;20899;-69
2022/06/28 09:24:56;;;;;;;3.85;3.55;;;;;;;;;;5024687;28;20438;-70
2022/06/28 09:27:28;;;;;;;4.00;3.70;;;;;;;;;;5019811;28;20496;-69
2022/06/28 09:29:55;;;;;;;3.80;3.50;;;;;;;;;;5022917;28;20435;-72
2022/06/28 09:32:27;;;;;;;3.90;3.60;;;;;;;;;;5022947;28;20912;-72
2022/06/28 09:34:56;;;;;;;3.80;3.50;;;;;;;;;;5024268;28;20504;-71
2022/06/28 09:37:37;;;;;;;3.92;3.53;;;;;;;;;;5015317;28;20496;-71
2022/06/28 09:40:14;;;;;;;4.57;4.18;;;;;;;;;;5021831;28;20461;-69
2022/06/28 09:42:42;;;;;;;3.72;2.95;;;;;;;;;;5024501;28;20434;-69
2022/06/28 09:45:10;;;;;;;3.00;2.80;;;;;;;;;;5024102;28;20535;-69
2022/06/28 09:47:41;;;;;;;2.80;2.60;;;;;;;;;;5019754;28;20433;-70
2022/06/28 09:50:10;;;;;;;3.10;2.60;;;;;;;;;;5024030;28;21140;-70
2022/06/28 09:52:43;;;;;;;2.83;2.10;;;;;;;;;;5025360;28;20518;-70
2022/06/28 09:55:11;;;;;;;2.65;1.60;;;;;;;;;;5020539;28;20449;-70
2022/06/28 09:57:38;;;;;;;2.33;1.77;;;;;;;;;;5023886;28;20933;-69
2022/06/28 10:00:05;;;;;;;2.80;1.50;;;;;;;;;;5025524;28;20441;-70
2022/06/28 10:02:33;;;;;;;2.33;1.50;;;;;;;;;;5025631;28;20443;-72
2022/06/28 10:05:01;;;;;;;2.10;1.30;;;;;;;;;;5024739;28;20435;-71
2022/06/28 10:07:30;;;;;;;2.83;1.67;;;;;;;;;;5022179;28;20614;-71
2022/06/28 10:09:58;;;;;;;1.67;1.20;;;;;;;;;;5019080;28;20490;-71
2022/06/28 10:15:10;;;;;;;3.15;1.40;;;;;;;;;;5024168;28;20477;-70
2022/06/28 10:17:58;;;;;;;2.00;1.00;;;;;;;;;;5023503;28;20952;-70
2022/06/28 10:20:26;;;;;;;1.30;1.00;;;;;;;;;;5016721;28;20903;-70
2022/06/28 10:23:15;;;;;;;2.53;1.23;;;;;;;;;;5033941;28;20425;-71
2022/06/28 10:25:42;;;;;;;1.90;1.20;;;;;;;;;;5045238;23;20900;-71
2022/06/28 10:28:24;;;;;;;2.40;1.40;;;;;;;;;;5014071;28;20433;-70
2022/06/28 10:30:51;;;;;;;1.30;1.20;;;;;;;;;;5020557;28;20426;-70
2022/06/28 10:33:38;;;;;;;2.70;1.50;;;;;;;;;;5021890;28;21208;-65
2022/06/28 10:36:15;;;;;;;1.23;1.10;;;;;;;;;;5023371;28;20438;-66
2022/06/28 10:38:57;;;;;;;1.42;1.20;;;;;;;;;;5027404;28;20434;-67
2022/06/28 10:41:36;;;;;;;1.73;1.10;;;;;;;;;;5026487;28;20921;-66
2022/06/28 10:44:07;;;;;;;1.83;1.00;;;;;;;;;;5027693;28;20518;-66
2022/06/28 10:46:34;;;;;;;1.85;1.23;;;;;;;;;;5027725;28;20425;-64
2022/06/28 10:49:06;;;;;;;1.98;1.42;;;;;;;;;;5029839;28;20840;-65
2022/06/28 10:51:34;;;;;;;1.80;1.30;;;;;;;;;;5027865;28;20441;-67
2022/06/28 10:54:02;;;;;;;2.00;1.10;;;;;;;;;;5027085;28;21100;-65
2022/06/28 10:56:31;;;;;;;1.80;1.30;;;;;;;;;;5026216;28;20446;-66
2022/06/28 10:58:58;;;;;;;1.88;1.27;;;;;;;;;;5028413;28;20497;-65
2022/06/28 11:01:44;;;;;;;1.58;1.20;;;;;;;;;;5023354;28;20454;-65
2022/06/28 11:04:12;;;;;;;2.30;1.17;;;;;;;;;;5024874;28;21038;-65
2022/06/28 11:06:40;;;;;;;2.10;1.50;;;;;;;;;;5031792;28;20430;-66
2022/06/28 11:09:10;;;;;;;2.15;1.02;;;;;;;;;;5028782;28;20438;-66
2022/06/28 11:11:58;;;;;;;2.00;1.10;;;;;;;;;;5030758;28;20426;-65
2022/06/28 11:14:29;;;;;;;1.90;1.00;;;;;;;;;;5029338;28;20435;-65
2022/06/28 11:16:56;;;;;;;2.20;1.05;;;;;;;;;;5026797;28;20967;-66
2022/06/28 11:19:24;;;;;;;2.45;1.00;;;;;;;;;;5029663;28;20901;-64
2022/06/28 11:21:55;;;;;;;2.10;0.80;;;;;;;;;;5027155;28;20431;-64
2022/06/28 11:24:23;;;;;;;1.60;0.90;;;;;;;;;;5019931;28;20458;-66
2022/06/28 11:29:36;;;;;;;1.73;0.80;;;;;;;;;;5024453;28;21024;-66
2022/06/28 11:32:15;;;;;;;2.20;0.90;;;;;;;;;;5028058;28;20415;-66
2022/06/28 11:34:43;;;;;;;1.80;0.90;;;;;;;;;;5025525;28;20979;-67
2022/06/28 11:37:10;;;;;;;1.40;0.70;;;;;;;;;;5027580;28;20801;-64
2022/06/28 11:39:37;;;;;;;1.30;0.70;;;;;;;;;;5021142;28;20446;-65
2022/06/28 11:42:06;;;;;;;2.40;1.00;;;;;;;;;;5027741;28;22033;-64
2022/06/28 11:44:33;;;;;;;3.03;0.88;;;;;;;;;;5022736;28;20870;-63
2022/06/28 11:47:02;;;;;;;0.85;0.70;;;;;;;;;;5022923;28;20431;-64
2022/06/28 11:49:30;;;;;;;1.58;1.00;;;;;;;;;;5024208;28;20442;-64
2022/06/28 11:51:57;;;;;;;1.60;0.80;;;;;;;;;;5025431;28;20431;-64
2022/06/28 11:54:24;;;;;;;1.90;1.20;;;;;;;;;;5026999;28;20438;-69
2022/06/28 11:56:53;;;;;;;1.75;1.00;;;;;;;;;;5021204;28;20928;-69
2022/06/28 11:59:22;;;;;;;1.55;0.90;;;;;;;;;;5023349;28;20439;-68
2022/06/28 12:01:49;;;;;;;1.27;1.00;;;;;;;;;;5024657;28;20439;-69
2022/06/28 12:04:21;;;;;;;3.08;1.10;;;;;;;;;;5019292;28;20441;-67
2022/06/28 12:06:48;;;;;;;1.50;0.70;;;;;;;;;;5024618;28;20497;-68
2022/06/28 12:09:16;;;;;;;1.27;0.77;;;;;;;;;;5024020;28;20846;-68
2022/06/28 12:11:44;;;;;;;1.92;0.70;;;;;;;;;;5027673;28;20419;-68
2022/06/28 12:14:13;;;;;;;3.63;0.65;;;;;;;;;;5021209;28;20446;-69
2022/06/28 12:16:42;;;;;;;2.10;0.90;;;;;;;;;;5024497;28;20442;-69
2022/06/28 12:19:11;;;;;;;1.95;0.90;;;;;;;;;;5022716;28;20439;-70
2022/06/28 12:21:38;;;;;;;3.47;1.20;;;;;;;;;;5017122;28;20437;-68
2022/06/28 12:24:05;;;;;;;1.25;0.75;;;;;;;;;;5025854;28;20439;-68
2022/06/28 12:26:40;;;;;;;1.50;0.90;;;;;;;;;;5017325;28;20437;-69
2022/06/28 12:29:07;;;;;;;1.40;0.90;;;;;;;;;;5024970;28;20435;-69
2022/06/28 12:31:34;;;;;;;1.90;0.80;;;;;;;;;;5024438;28;20418;-70
2022/06/28 12:34:07;;;;;;;1.50;0.93;;;;;;;;;;5019899;28;20450;-69
2022/06/28 12:36:34;;;;;;;1.98;1.05;;;;;;;;;;5017975;28;20493;-69
2022/06/28 12:39:01;;;;;;;1.57;0.90;;;;;;;;;;5022922;28;20434;-69
2022/06/28 12:41:29;;;;;;;1.45;0.80;;;;;;;;;;5025592;28;20418;-69
2022/06/28 12:43:56;;;;;;;1.63;0.80;;;;;;;;;;5024700;28;20434;-70
2022/06/28 12:46:23;;;;;;;2.03;0.68;;;;;;;;;;5023737;28;20442;-70
2022/06/28 12:48:50;;;;;;;1.55;0.70;;;;;;;;;;5023266;28;20787;-68
2022/06/28 12:51:19;;;;;;;1.00;0.60;;;;;;;;;;5015089;28;20430;-68
2022/06/28 12:53:47;;;;;;;1.73;0.80;;;;;;;;;;5023578;28;20419;-68
2022/06/28 12:56:16;;;;;;;1.25;0.98;;;;;;;;;;5023169;28;20442;-68
2022/06/28 12:58:43;;;;;;;1.30;0.77;;;;;;;;;;5026456;28;20438;-68
2022/06/28 13:01:10;;;;;;;0.90;0.60;;;;;;;;;;5025495;28;20943;-68
2022/06/28 13:03:37;;;;;;;0.70;0.50;;;;;;;;;;5020116;28;20437;-68
2022/06/28 13:06:05;;;;;;;1.42;0.60;;;;;;;;;;5021053;28;20431;-69
2022/06/28 13:08:34;;;;;;;1.10;0.70;;;;;;;;;;5021621;28;20435;-69
2022/06/28 13:11:01;;;;;;;1.30;0.80;;;;;;;;;;5026459;28;20439;-69
2022/06/28 13:13:29;;;;;;;1.25;0.70;;;;;;;;;;5021074;28;20442;-70
2022/06/28 13:15:56;;;;;;;1.70;0.80;;;;;;;;;;5022018;28;20842;-69
2022/06/28 13:18:23;;;;;;;1.90;0.90;;;;;;;;;;5018651;28;20442;-69
2022/06/28 13:20:50;;;;;;;1.70;0.70;;;;;;;;;;5027307;28;20415;-69
2022/06/28 13:23:17;;;;;;;1.20;0.60;;;;;;;;;;5025658;28;20486;-69
2022/06/28 13:25:46;;;;;;;1.13;0.60;;;;;;;;;;5026674;28;20451;-70
2022/06/28 13:28:13;;;;;;;0.90;0.63;;;;;;;;;;5025273;28;20805;-69
2022/06/28 13:30:41;;;;;;;1.60;0.80;;;;;;;;;;5026997;28;20429;-69
2022/06/28 13:33:08;;;;;;;1.60;0.90;;;;;;;;;;5026915;28;20419;-69
2022/06/28 13:35:36;;;;;;;1.52;0.90;;;;;;;;;;5026706;28;20423;-69
2022/06/28 13:38:03;;;;;;;1.45;0.70;;;;;;;;;;5024274;28;20811;-70
2022/06/28 13:40:31;;;;;;;1.40;1.20;;;;;;;;;;5027247;28;20457;-70
2022/06/28 13:42:59;;;;;;;1.50;0.80;;;;;;;;;;5027005;28;20422;-70
2022/06/28 13:45:26;;;;;;;1.70;0.60;;;;;;;;;;5027013;28;20425;-70
2022/06/28 13:47:53;;;;;;;1.40;0.90;;;;;;;;;;5029045;28;20952;-70
2022/06/28 13:50:21;;;;;;;1.60;0.73;;;;;;;;;;5026165;28;20443;-70
2022/06/28 13:52:48;;;;;;;2.25;0.90;;;;;;;;;;5025660;28;20885;-69
2022/06/28 13:55:15;;;;;;;2.60;0.73;;;;;;;;;;5027235;28;20422;-69
2022/06/28 13:57:42;;;;;;;0.75;0.60;;;;;;;;;;5025964;28;20426;-70
2022/06/28 14:00:11;;;;;;;1.70;0.70;;;;;;;;;;5026873;28;20912;-72
2022/06/28 14:02:39;;;;;;;1.15;0.70;;;;;;;;;;5028326;28;20415;-70
2022/06/28 14:05:06;;;;;;;1.20;0.70;;;;;;;;;;5029840;28;20446;-71
2022/06/28 14:07:33;;;;;;;3.00;0.80;;;;;;;;;;5028892;28;20530;-70
2022/06/28 14:10:01;;;;;;;2.00;0.80;;;;;;;;;;5030749;28;20415;-70
2022/06/28 14:12:28;;;;;;;1.80;0.68;;;;;;;;;;5030895;28;20415;-70
2022/06/28 14:14:55;;;;;;;2.10;0.90;;;;;;;;;;5031074;28;20422;-70
2022/06/28 14:17:23;;;;;;;1.45;0.65;;;;;;;;;;5029643;28;20419;-70
2022/06/28 14:19:51;;;;;;;1.27;0.77;;;;;;;;;;5024987;28;20465;-71
2022/06/28 14:22:18;;;;;;;1.58;0.80;;;;;;;;;;5021197;28;20948;-70
2022/06/28 14:24:47;;;;;;;2.00;0.80;;;;;;;;;;5020886;28;20469;-70
2022/06/28 14:27:14;;;;;;;1.40;0.80;;;;;;;;;;5025713;28;20434;-70
2022/06/28 14:29:41;;;;;;;0.90;0.80;;;;;;;;;;5024023;28;20427;-70
2022/06/28 14:32:09;;;;;;;1.10;0.90;;;;;;;;;;5022015;28;20434;-71
2022/06/28 14:34:38;;;;;;;1.60;0.90;;;;;;;;;;5018890;28;20922;-70
2022/06/28 14:37:05;;;;;;;1.20;1.00;;;;;;;;;;5028826;28;20435;-71
2022/06/28 14:39:32;;;;;;;1.25;0.70;;;;;;;;;;5027747;28;20431;-70
2022/06/28 14:42:00;;;;;;;1.00;0.90;;;;;;;;;;5027138;28;20936;-70
2022/06/28 14:44:27;;;;;;;1.20;0.80;;;;;;;;;;5028351;28;20437;-70
2022/06/28 14:46:54;;;;;;;1.10;0.90;;;;;;;;;;5026674;28;20921;-70
2022/06/28 14:49:21;;;;;;;1.85;0.90;;;;;;;;;;5027457;28;20441;-71
2022/06/28 14:51:49;;;;;;;1.80;0.70;;;;;;;;;;5027122;28;20867;-70
2022/06/28 14:54:17;;;;;;;1.10;0.70;;;;;;;;;;5024929;28;20438;-71
2022/06/28 14:56:44;;;;;;;2.70;0.98;;;;;;;;;;5025713;28;20437;-70
2022/06/28 14:59:11;;;;;;;1.10;0.90;;;;;;;;;;5027580;28;20427;-71
2022/06/28 15:01:39;;;;;;;1.60;0.82;;;;;;;;;;5028337;28;20449;-70
2022/06/28 15:04:06;;;;;;;1.10;0.88;;;;;;;;;;5024430;28;20945;-71
2022/06/28 15:06:33;;;;;;;1.02;0.90;;;;;;;;;;5027458;28;20441;-70
2022/06/28 15:09:02;;;;;;;1.80;0.80;;;;;;;;;;5025626;28;20449;-70